Time;durP1;ratioP1;P1;durP2;ratioP2;P2;SDS_P1;SDS_P2;PMS_P1;PMS_P2;Temp;Humidity;BMP_temperature;BMP_pressure;BME280_temperature;BME280_humidity;BME280_pressure;Samples;Min_cycle;Max_cycle;Signal;HPM_P1;HPM_P2
2022/09/30 00:01:08;;;;;;;30.90;21.90;;;;;;;2.46;92.32;99971.17;87344;1303;22451;-79
2022/09/30 00:03:20;;;;;;;32.40;22.40;;;;;;;2.43;92.27;99971.91;87287;1303;23222;-82
2022/09/30 00:05:26;;;;;;;38.90;24.70;;;;;;;2.39;92.11;99969.37;87341;1283;22484;-82
2022/09/30 00:07:32;;;;;;;39.80;22.80;;;;;;;2.37;92.24;99967.16;87318;1295;23055;-79
2022/09/30 00:09:38;;;;;;;30.60;23.00;;;;;;;2.36;92.33;99968.38;87243;1284;22470;-77
2022/09/30 00:11:44;;;;;;;24.30;18.00;;;;;;;2.33;92.32;99966.69;87376;1303;22730;-80
2022/09/30 00:13:51;;;;;;;28.10;19.60;;;;;;;2.32;92.26;99961.37;87332;1303;22477;-80
2022/09/30 00:15:59;;;;;;;25.20;17.70;;;;;;;2.31;92.28;99962.74;87344;1307;22602;-79
2022/09/30 00:18:06;;;;;;;19.60;14.30;;;;;;;2.31;92.36;99966.20;87205;1291;22549;-78
2022/09/30 00:20:13;;;;;;;22.10;16.50;;;;;;;2.29;92.16;99966.20;87275;1284;24370;-78
2022/09/30 00:22:19;;;;;;;20.80;14.30;;;;;;;2.28;92.34;99967.26;87241;1284;22502;-78
2022/09/30 00:24:25;;;;;;;24.00;14.40;;;;;;;2.28;92.39;99970.35;87213;1290;22478;-79
2022/09/30 00:26:31;;;;;;;20.80;15.20;;;;;;;2.28;92.34;99973.80;87248;1303;22471;-77
2022/09/30 00:28:38;;;;;;;22.80;16.70;;;;;;;2.28;92.29;99976.55;87119;1306;22617;-77
2022/09/30 00:30:44;;;;;;;21.00;14.50;;;;;;;2.25;92.43;99977.79;87234;1296;25666;-80
2022/09/30 00:32:50;;;;;;;22.10;15.40;;;;;;;2.24;92.43;99977.97;87368;1294;22458;-80
2022/09/30 00:34:55;;;;;;;21.00;15.30;;;;;;;2.23;92.53;99981.27;87286;1303;22447;-80
2022/09/30 00:37:02;;;;;;;19.40;13.40;;;;;;;2.21;92.45;99981.27;87311;1286;22473;-81
2022/09/30 00:39:09;;;;;;;19.10;14.50;;;;;;;2.19;92.37;99977.16;87241;1298;25254;-81
2022/09/30 00:41:15;;;;;;;16.70;12.70;;;;;;;2.15;92.29;99975.48;87276;1303;22463;-81
2022/09/30 00:43:36;;;;;;;16.70;13.00;;;;;;;2.13;92.22;99972.58;87233;1296;22489;-80
2022/09/30 00:45:44;;;;;;;17.60;13.00;;;;;;;2.11;92.40;99976.04;87245;1303;24280;-79
2022/09/30 00:47:56;;;;;;;19.00;13.20;;;;;;;2.09;92.36;99975.89;87346;1303;23158;-82
2022/09/30 00:50:06;;;;;;;18.90;14.20;;;;;;;2.07;92.46;99974.36;87280;1302;22485;-82
2022/09/30 00:52:11;;;;;;;24.60;13.50;;;;;;;2.07;92.57;99976.59;87311;1303;23722;-79
2022/09/30 00:54:20;;;;;;;16.50;12.70;;;;;;;2.08;92.76;99979.67;87243;1290;22508;-78
2022/09/30 00:56:28;;;;;;;17.00;12.30;;;;;;;2.13;93.08;99978.09;87255;1303;23018;-78
2022/09/30 00:58:38;;;;;;;23.30;14.90;;;;;;;2.18;93.18;99981.65;87229;1306;22472;-79
2022/09/30 01:00:44;;;;;;;19.80;13.30;;;;;;;2.20;93.13;99980.07;87243;1306;22480;-80
2022/09/30 01:02:51;;;;;;;20.60;13.70;;;;;;;2.19;92.99;99976.30;87140;1287;22643;-83
2022/09/30 01:04:57;;;;;;;15.50;11.70;;;;;;;2.16;92.88;99974.27;87188;1288;22462;-80
2022/09/30 01:07:05;;;;;;;17.70;13.00;;;;;;;2.11;92.71;99973.96;87174;1299;22719;-79
2022/09/30 01:09:11;;;;;;;24.50;14.60;;;;;;;2.07;92.55;99983.30;87040;1310;24343;-79
2022/09/30 01:11:17;;;;;;;21.60;14.10;;;;;;;2.04;92.68;99985.91;87266;1306;22481;-80
2022/09/30 01:13:23;;;;;;;21.50;13.60;;;;;;;2.03;92.54;99983.69;87141;1306;23748;-80
2022/09/30 01:15:53;;;;;;;21.10;13.90;;;;;;;2.00;92.34;99978.89;87213;1293;22471;-80
2022/09/30 01:18:02;;;;;;;26.10;16.00;;;;;;;1.98;92.56;99978.73;87212;1306;22706;-80
2022/09/30 01:21:19;;;;;;;28.40;17.10;;;;;;;1.96;92.58;99977.73;87249;1309;22512;-80
2022/09/30 01:23:58;;;;;;;29.20;18.10;;;;;;;1.92;92.73;99975.18;86948;1309;22488;-84
2022/09/30 01:26:52;;;;;;;31.70;19.10;;;;;;;1.91;92.75;99967.79;87191;1296;22495;-81
2022/09/30 01:29:53;;;;;;;30.60;19.20;;;;;;;1.94;92.93;99967.77;87192;1307;24391;-81
2022/09/30 01:32:03;;;;;;;30.60;19.80;;;;;;;1.96;93.09;99970.48;87155;1303;22476;-78
2022/09/30 01:34:13;;;;;;;25.90;17.70;;;;;;;1.96;92.84;99976.53;87193;1304;23931;-80
2022/09/30 01:36:29;;;;;;;25.50;18.00;;;;;;;1.93;92.78;99981.72;87196;1304;22705;-81
2022/09/30 01:38:43;;;;;;;25.50;17.70;;;;;;;1.91;92.81;99980.54;87129;1312;22469;-81
2022/09/30 01:40:53;;;;;;;29.60;18.40;;;;;;;1.87;92.91;99981.08;87204;1298;25393;-79
2022/09/30 01:43:03;;;;;;;21.20;16.80;;;;;;;1.84;92.79;99982.31;87171;1299;23971;-82
2022/09/30 01:45:12;;;;;;;24.70;16.50;;;;;;;1.81;92.76;99985.77;87040;1312;22466;-80
2022/09/30 01:47:21;;;;;;;20.50;15.10;;;;;;;1.80;92.83;99989.57;87197;1307;24366;-78
2022/09/30 01:49:36;;;;;;;22.60;15.10;;;;;;;1.78;92.78;99995.09;87178;1297;22515;-78
2022/09/30 01:51:45;;;;;;;20.30;14.70;;;;;;;1.75;92.88;99995.46;87212;1305;22471;-79
2022/09/30 01:53:55;;;;;;;20.50;14.60;;;;;;;1.74;92.88;99993.56;87061;1300;22487;-80
2022/09/30 01:56:11;;;;;;;21.60;12.80;;;;;;;1.74;92.86;100001.32;87220;1304;24291;-79
2022/09/30 01:58:21;;;;;;;20.70;14.70;;;;;;;1.73;92.84;100008.02;87188;1304;25256;-79
2022/09/30 02:00:26;;;;;;;19.00;14.00;;;;;;;1.73;92.91;100008.71;87181;1303;22579;-79
2022/09/30 02:02:32;;;;;;;19.80;13.30;;;;;;;1.73;92.91;100013.19;87178;1302;23700;-79
2022/09/30 02:04:42;;;;;;;21.00;14.10;;;;;;;1.73;93.10;100014.56;87185;1304;22465;-80
2022/09/30 02:06:53;;;;;;;19.90;14.40;;;;;;;1.72;92.95;100019.05;87194;1304;22621;-77
2022/09/30 02:09:02;;;;;;;22.40;15.10;;;;;;;1.71;93.05;100016.81;87170;1305;22468;-78
2022/09/30 02:11:11;;;;;;;25.40;16.50;;;;;;;1.70;93.23;100022.33;87191;1304;22483;-79
2022/09/30 02:13:20;;;;;;;27.10;16.60;;;;;;;1.68;93.20;100025.77;87110;1305;22517;-81
2022/09/30 02:15:27;;;;;;;21.40;15.70;;;;;;;1.66;93.08;100024.23;87174;1304;23184;-80
2022/09/30 02:17:35;;;;;;;25.50;16.20;;;;;;;1.66;93.21;100027.85;87174;1304;25271;-81
2022/09/30 02:19:43;;;;;;;22.00;15.10;;;;;;;1.65;93.35;100036.80;87180;1305;22513;-80
2022/09/30 02:21:52;;;;;;;23.70;15.80;;;;;;;1.64;93.28;100037.50;87190;1304;24426;-79
2022/09/30 02:24:01;;;;;;;21.60;15.30;;;;;;;1.63;93.42;100039.92;87180;1291;22484;-80
2022/09/30 02:26:09;;;;;;;20.20;14.20;;;;;;;1.62;93.51;100044.04;87205;1286;22477;-81
2022/09/30 02:28:18;;;;;;;23.30;15.10;;;;;;;1.61;93.39;100042.85;87176;1306;22591;-81
2022/09/30 02:30:23;;;;;;;22.40;15.00;;;;;;;1.60;93.49;100042.86;87181;1291;22711;-80
2022/09/30 02:32:34;;;;;;;23.70;15.90;;;;;;;1.60;93.64;100043.54;87236;1284;22469;-81
2022/09/30 02:34:42;;;;;;;20.90;14.50;;;;;;;1.61;93.66;100044.21;87240;1293;25908;-81
2022/09/30 02:36:50;;;;;;;21.50;14.50;;;;;;;1.61;93.80;100045.94;87225;1306;22469;-79
2022/09/30 02:39:04;;;;;;;22.70;15.50;;;;;;;1.61;93.81;100046.98;87232;1299;22471;-79
2022/09/30 02:41:15;;;;;;;19.60;14.70;;;;;;;1.60;93.74;100045.27;87219;1298;25450;-79
2022/09/30 02:43:26;;;;;;;19.40;13.80;;;;;;;1.58;93.57;100041.84;87163;1298;22495;-80
2022/09/30 02:45:43;;;;;;;18.20;13.30;;;;;;;1.54;93.43;100043.58;87161;1304;22482;-80
2022/09/30 02:48:02;;;;;;;19.50;13.00;;;;;;;1.52;93.42;100046.34;87211;1297;22718;-77
2022/09/30 02:50:12;;;;;;;17.00;13.10;;;;;;;1.49;93.36;100049.46;87176;1299;25206;-77
2022/09/30 02:52:24;;;;;;;16.20;12.50;;;;;;;1.48;93.43;100043.45;87233;1304;22870;-79
2022/09/30 02:54:34;;;;;;;18.90;14.10;;;;;;;1.50;93.53;100048.93;87230;1304;22713;-78
2022/09/30 02:56:45;;;;;;;17.30;12.60;;;;;;;1.49;93.51;100055.48;87236;1292;22607;-77
2022/09/30 02:58:50;;;;;;;15.60;13.20;;;;;;;1.48;93.49;100063.05;87182;1285;22499;-77
2022/09/30 03:00:56;;;;;;;20.40;14.40;;;;;;;1.46;93.49;100066.83;86494;1286;1002833;-80
2022/09/30 03:03:07;;;;;;;18.70;13.00;;;;;;;1.45;93.50;100067.88;87205;1304;22433;-80
2022/09/30 03:05:12;;;;;;;16.40;11.60;;;;;;;1.43;93.47;100065.65;87265;1304;22474;-80
2022/09/30 03:07:18;;;;;;;23.20;14.10;;;;;;;1.42;93.62;100067.70;87185;1299;22468;-77
2022/09/30 03:09:28;;;;;;;22.40;14.10;;;;;;;1.42;93.60;100064.61;87027;1307;22489;-77
2022/09/30 03:11:37;;;;;;;16.30;13.80;;;;;;;1.41;93.66;100061.88;87046;1291;22471;-76
2022/09/30 03:14:33;;;;;;;17.40;14.10;;;;;;;1.43;93.82;100064.28;87183;1295;22473;-77
2022/09/30 03:17:02;;;;;;;21.90;16.20;;;;;;;1.47;94.03;100071.11;86996;1304;23730;-81
2022/09/30 03:19:21;;;;;;;23.10;16.50;;;;;;;1.51;94.34;100069.38;87222;1306;22957;-80
2022/09/30 03:21:39;;;;;;;19.30;15.40;;;;;;;1.54;94.20;100068.16;87220;1295;22669;-79
2022/09/30 03:24:20;;;;;;;19.60;15.90;;;;;;;1.57;94.36;100060.06;87254;1302;22516;-80
2022/09/30 03:26:30;;;;;;;;;;;;;;;1.57;94.22;100059.02;87209;1296;22432;-80
2022/09/30 03:28:38;;;;;;;24.50;15.40;;;;;;;1.53;93.88;100066.63;87210;1304;25281;-80
2022/09/30 03:30:47;;;;;;;24.30;14.60;;;;;;;1.51;93.71;100070.76;87199;1304;22488;-79
2022/09/30 03:33:05;;;;;;;17.70;14.30;;;;;;;1.51;93.96;100074.02;87040;1306;22486;-78
2022/09/30 03:35:18;;;;;;;19.30;15.70;;;;;;;1.51;93.98;100072.98;87166;1298;22479;-76
2022/09/30 03:37:30;;;;;;;21.40;14.80;;;;;;;1.51;93.96;100077.45;87089;1306;24245;-81
2022/09/30 03:39:44;;;;;;;17.80;13.90;;;;;;;1.51;94.00;100077.80;87116;1306;24255;-82
2022/09/30 03:41:53;;;;;;;19.30;14.40;;;;;;;1.51;93.95;100074.36;87109;1306;25703;-79
2022/09/30 03:44:08;;;;;;;19.00;13.70;;;;;;;1.51;94.02;100069.55;87079;1291;24090;-79
2022/09/30 03:46:20;;;;;;;21.30;13.60;;;;;;;1.54;94.11;100072.81;87216;1288;22857;-79
2022/09/30 03:48:26;;;;;;;22.20;16.20;;;;;;;1.56;94.14;100070.20;87209;1298;22512;-79
2022/09/30 03:50:32;;;;;;;24.30;15.40;;;;;;;1.58;94.18;100070.20;87193;1304;22878;-80
2022/09/30 03:52:37;;;;;;;20.80;14.90;;;;;;;1.59;94.06;100067.98;87234;1304;23913;-79
2022/09/30 03:54:50;;;;;;;23.90;14.70;;;;;;;1.61;94.24;100071.90;87037;1306;24268;-80
2022/09/30 03:56:56;;;;;;;24.60;15.50;;;;;;;1.63;94.32;100073.10;87190;1304;24412;-77
2022/09/30 03:59:01;;;;;;;19.90;14.20;;;;;;;1.64;94.35;100074.30;87160;1290;22487;-77
2022/09/30 04:01:07;;;;;;;26.00;15.00;;;;;;;1.66;94.31;100074.10;87189;1304;22498;-78
2022/09/30 04:03:14;;;;;;;24.70;14.80;;;;;;;1.68;94.43;100069.29;87226;1304;22459;-79
2022/09/30 04:05:19;;;;;;;21.70;15.70;;;;;;;1.71;94.58;100073.20;87204;1304;22475;-80
2022/09/30 04:07:27;;;;;;;25.80;16.30;;;;;;;1.73;94.48;100075.27;87243;1304;22712;-80
2022/09/30 04:09:33;;;;;;;25.60;18.80;;;;;;;1.72;94.39;100076.66;87181;1304;24411;-80
2022/09/30 04:11:38;;;;;;;28.00;17.60;;;;;;;1.70;94.22;100078.20;87180;1306;24287;-79
2022/09/30 04:13:43;;;;;;;23.80;15.80;;;;;;;1.68;94.25;100083.90;87272;1304;25438;-79
2022/09/30 04:15:56;;;;;;;27.40;15.90;;;;;;;1.66;94.15;100086.32;87275;1296;24280;-78
2022/09/30 04:18:02;;;;;;;26.70;17.90;;;;;;;1.64;94.04;100087.55;87168;1281;22464;-77
2022/09/30 04:20:09;;;;;;;25.20;17.30;;;;;;;1.63;94.12;100088.23;87168;1304;22457;-77
2022/09/30 04:22:15;;;;;;;21.00;16.30;;;;;;;1.64;94.45;100093.38;87238;1304;24063;-78
2022/09/30 04:24:21;;;;;;;26.20;18.70;;;;;;;1.67;94.44;100094.04;87102;1294;22485;-79
2022/09/30 04:26:27;;;;;;;22.30;15.90;;;;;;;1.66;94.22;100100.23;87230;1290;22477;-79
2022/09/30 04:28:33;;;;;;;23.70;15.80;;;;;;;1.63;94.13;100108.35;87127;1306;22487;-80
2022/09/30 04:30:40;;;;;;;25.80;17.60;;;;;;;1.63;94.28;100117.63;87202;1289;22452;-80
2022/09/30 04:32:46;;;;;;;29.40;16.80;;;;;;;1.62;94.45;100119.85;87086;1306;24220;-77
2022/09/30 04:34:53;;;;;;;25.70;15.80;;;;;;;1.60;94.26;100120.91;87182;1304;22464;-77
2022/09/30 04:36:58;;;;;;;25.00;17.30;;;;;;;1.60;94.27;100126.93;87265;1299;22471;-80
2022/09/30 04:39:05;;;;;;;30.00;17.20;;;;;;;1.60;94.29;100125.04;87259;1303;22475;-79
2022/09/30 04:41:14;;;;;;;31.70;18.50;;;;;;;1.61;94.43;100127.08;87241;1287;22499;-80
2022/09/30 04:43:22;;;;;;;28.80;17.60;;;;;;;1.63;94.37;100130.36;87239;1304;22517;-79
2022/09/30 04:45:30;;;;;;;26.40;17.20;;;;;;;1.67;94.52;100131.87;87187;1304;22605;-80
2022/09/30 04:47:36;;;;;;;25.00;19.10;;;;;;;1.68;94.45;100135.66;87127;1306;22457;-78
2022/09/30 04:49:41;;;;;;;29.40;18.60;;;;;;;1.70;94.71;100132.36;87214;1296;22464;-78
2022/09/30 04:51:47;;;;;;;26.90;20.00;;;;;;;1.74;94.87;100131.67;87195;1301;25417;-80
2022/09/30 04:53:53;;;;;;;28.30;19.60;;;;;;;1.76;94.94;100126.83;87165;1304;22538;-81
2022/09/30 04:56:01;;;;;;;26.10;19.00;;;;;;;1.79;95.02;100125.95;87201;1294;22515;-79
2022/09/30 04:58:07;;;;;;;31.00;19.10;;;;;;;1.85;95.21;100125.76;87193;1299;22543;-79
2022/09/30 05:00:14;;;;;;;26.80;18.80;;;;;;;1.88;95.16;100123.15;87075;1306;22475;-79
2022/09/30 05:02:20;;;;;;;31.00;19.40;;;;;;;1.89;94.88;100133.11;87178;1285;22465;-80
2022/09/30 05:04:26;;;;;;;26.10;17.50;;;;;;;1.90;94.76;100136.37;87188;1298;22514;-81
2022/09/30 05:06:31;;;;;;;31.30;18.20;;;;;;;1.92;94.87;100136.70;87195;1304;22552;-77
2022/09/30 05:08:38;;;;;;;25.40;18.60;;;;;;;1.92;94.88;100142.56;87173;1304;22516;-77
2022/09/30 05:10:45;;;;;;;25.50;18.00;;;;;;;1.94;94.77;100148.05;87158;1304;24460;-79
2022/09/30 05:12:52;;;;;;;34.60;19.90;;;;;;;1.96;94.86;100154.05;86685;1291;670428;-81
2022/09/30 05:14:58;;;;;;;31.60;19.30;;;;;;;1.99;94.87;100162.64;87170;1287;22452;-80
2022/09/30 05:17:04;;;;;;;30.00;18.60;;;;;;;2.03;95.02;100162.96;87200;1304;22481;-78
2022/09/30 05:19:10;;;;;;;28.20;17.40;;;;;;;2.06;95.08;100160.86;87195;1305;22464;-78
2022/09/30 05:21:16;;;;;;;26.10;18.40;;;;;;;2.10;95.26;100155.85;87175;1285;22473;-81
2022/09/30 05:23:22;;;;;;;27.70;17.60;;;;;;;2.13;95.12;100152.57;87272;1298;22523;-80
2022/09/30 05:25:28;;;;;;;26.10;19.30;;;;;;;2.18;95.32;100152.36;87156;1287;26993;-79
2022/09/30 05:27:34;;;;;;;32.50;21.90;;;;;;;2.26;95.76;100149.55;87163;1291;22467;-80
2022/09/30 05:29:40;;;;;;;32.40;22.70;;;;;;;2.37;96.09;100148.93;87199;1295;25260;-81
2022/09/30 05:31:46;;;;;;;31.50;21.70;;;;;;;2.45;96.14;100149.20;87201;1294;22458;-82
2022/09/30 05:33:53;;;;;;;35.20;24.30;;;;;;;2.50;96.03;100155.02;87171;1304;22871;-82
2022/09/30 05:36:01;;;;;;;31.40;23.70;;;;;;;2.54;95.81;100158.61;87066;1300;22467;-78
2022/09/30 05:38:07;;;;;;;28.70;20.10;;;;;;;2.56;95.69;100164.10;87160;1284;22479;-78
2022/09/30 05:40:13;;;;;;;37.60;22.20;;;;;;;2.59;95.62;100164.41;87171;1306;22482;-78
2022/09/30 05:42:19;;;;;;;35.90;24.00;;;;;;;2.64;95.56;100165.58;87261;1304;22487;-80
2022/09/30 05:44:26;;;;;;;33.40;22.80;;;;;;;2.66;95.13;100172.63;87222;1285;22482;-80
2022/09/30 05:46:32;;;;;;;33.40;21.40;;;;;;;2.69;95.26;100173.28;87219;1305;22597;-81
2022/09/30 05:48:38;;;;;;;35.50;20.50;;;;;;;2.75;95.47;100172.02;87199;1304;22743;-81
2022/09/30 05:50:50;;;;;;;32.70;21.30;;;;;;;2.80;95.43;100171.63;87153;1306;22981;-79
2022/09/30 05:52:56;;;;;;;38.10;25.20;;;;;;;2.84;95.18;100175.38;87141;1306;22474;-83
2022/09/30 05:55:02;;;;;;;39.20;23.70;;;;;;;2.87;95.25;100179.50;87203;1304;22501;-79
2022/09/30 05:57:13;;;;;;;34.30;22.60;;;;;;;2.94;95.38;100176.33;87247;1284;22461;-80
2022/09/30 05:59:20;;;;;;;31.10;21.90;;;;;;;3.07;95.71;100170.16;87191;1304;22522;-80
2022/09/30 06:01:26;;;;;;;35.70;22.80;;;;;;;3.22;96.35;100168.95;87249;1299;22458;-80
2022/09/30 06:03:32;;;;;;;32.20;23.90;;;;;;;3.35;96.42;100174.84;87252;1294;22682;-81
2022/09/30 06:05:53;;;;;;;32.50;23.40;;;;;;;3.48;97.12;100180.20;87200;1306;22613;-81
2022/09/30 06:08:03;;;;;;;33.00;25.00;;;;;;;3.62;97.65;100181.74;87176;1292;22461;-79
2022/09/30 06:10:12;;;;;;;31.80;23.40;;;;;;;3.72;97.57;100181.79;87179;1297;22451;-80
2022/09/30 06:12:18;;;;;;;32.10;23.10;;;;;;;3.81;97.68;100181.52;87039;1306;25589;-77
2022/09/30 06:14:27;;;;;;;32.60;23.40;;;;;;;3.86;97.26;100180.58;87046;1289;22520;-79
2022/09/30 06:16:47;;;;;;;32.20;23.10;;;;;;;3.90;96.99;100184.48;87186;1304;25426;-79
2022/09/30 06:18:53;;;;;;;35.10;22.00;;;;;;;3.96;97.20;100186.67;87197;1304;22479;-81
2022/09/30 06:20:59;;;;;;;31.00;23.40;;;;;;;4.02;97.06;100190.70;87183;1304;22489;-81
2022/09/30 06:23:05;;;;;;;32.60;22.10;;;;;;;4.12;97.22;100191.95;87197;1277;22463;-79
2022/09/30 06:25:13;;;;;;;32.10;22.80;;;;;;;4.25;97.50;100190.20;87169;1284;24271;-78
2022/09/30 06:27:19;;;;;;;34.10;25.00;;;;;;;4.42;98.20;100189.09;87228;1277;22464;-83
2022/09/30 06:29:25;;;;;;;37.20;26.70;;;;;;;4.60;99.03;100191.71;87041;1306;25886;-78
2022/09/30 06:31:31;;;;;;;35.00;25.70;;;;;;;4.78;99.52;100194.52;87179;1304;22481;-79
2022/09/30 06:33:36;;;;;;;43.40;27.90;;;;;;;4.95;99.55;100196.30;87194;1304;22462;-83
2022/09/30 06:35:42;;;;;;;39.30;26.40;;;;;;;5.14;99.79;100199.75;87206;1298;25242;-81
2022/09/30 06:37:52;;;;;;;39.80;27.40;;;;;;;5.33;99.97;100200.80;87153;1284;22512;-78
2022/09/30 06:39:58;;;;;;;40.10;27.20;;;;;;;5.51;99.99;100203.37;87372;1285;22422;-79
2022/09/30 06:42:04;;;;;;;39.40;28.30;;;;;;;5.68;100.00;100205.61;87300;1306;25579;-81
2022/09/30 06:44:11;;;;;;;40.40;27.60;;;;;;;5.84;100.00;100206.17;87252;1284;22595;-80
2022/09/30 06:46:17;;;;;;;43.60;28.10;;;;;;;5.98;100.00;100204.50;87100;1306;22482;-79
2022/09/30 06:48:23;;;;;;;40.70;28.20;;;;;;;6.15;100.00;100201.35;87184;1299;22511;-80
2022/09/30 06:50:28;;;;;;;41.40;27.00;;;;;;;6.32;100.00;100198.35;87166;1304;22469;-79
2022/09/30 06:52:34;;;;;;;50.10;27.40;;;;;;;6.51;100.00;100198.27;87300;1284;22540;-81
2022/09/30 06:54:42;;;;;;;45.90;29.30;;;;;;;6.68;100.00;100198.02;87253;1304;22505;-80
2022/09/30 06:56:51;;;;;;;42.80;26.60;;;;;;;6.84;100.00;100201.59;87239;1294;22476;-80
2022/09/30 06:58:57;;;;;;;36.70;27.00;;;;;;;7.01;100.00;100201.16;87270;1304;22476;-80
2022/09/30 07:01:05;;;;;;;41.30;28.00;;;;;;;7.22;100.00;100194.88;87191;1306;24277;-80
2022/09/30 07:03:18;;;;;;;42.50;25.40;;;;;;;7.45;100.00;100196.16;87093;1306;22487;-80
2022/09/30 07:05:25;;;;;;;35.90;27.50;;;;;;;7.65;99.90;100199.23;87194;1287;22449;-80
2022/09/30 07:07:33;;;;;;;40.00;25.40;;;;;;;7.88;99.97;100195.80;87169;1295;22706;-79
2022/09/30 07:09:39;;;;;;;38.60;28.00;;;;;;;8.13;100.00;100197.45;87192;1287;22544;-79
2022/09/30 07:11:44;;;;;;;36.90;27.30;;;;;;;8.42;100.00;100197.09;87186;1304;24212;-81
2022/09/30 07:13:50;;;;;;;40.40;26.60;;;;;;;8.66;99.95;100198.23;87223;1304;22478;-80
2022/09/30 07:15:58;;;;;;;38.20;26.70;;;;;;;8.91;99.89;100201.04;87224;1304;24317;-79
2022/09/30 07:18:04;;;;;;;38.40;27.10;;;;;;;9.20;99.88;100196.57;87176;1294;26705;-79
2022/09/30 07:20:13;;;;;;;32.50;24.50;;;;;;;9.49;99.54;100194.84;87178;1284;22470;-78
2022/09/30 07:22:29;;;;;;;35.80;25.80;;;;;;;9.72;98.20;100196.08;87165;1304;22545;-77
2022/09/30 07:24:35;;;;;;;42.30;25.70;;;;;;;9.94;97.50;100197.16;87245;1278;22420;-78
2022/09/30 07:26:44;;;;;;;31.90;24.90;;;;;;;10.21;97.18;100200.52;87231;1285;22487;-79
2022/09/30 07:28:50;;;;;;;32.40;24.30;;;;;;;10.50;96.63;100201.30;87517;1287;22425;-79
2022/09/30 07:30:56;;;;;;;36.70;26.10;;;;;;;10.79;96.26;100201.64;87293;1298;22483;-81
2022/09/30 07:33:03;;;;;;;30.90;24.00;;;;;;;11.12;95.81;100207.08;87199;1296;25227;-82
2022/09/30 07:35:09;;;;;;;33.60;22.90;;;;;;;11.30;94.62;100209.08;87189;1294;25404;-82
2022/09/30 07:37:17;;;;;;;30.80;22.40;;;;;;;11.43;93.79;100211.48;87251;1304;22471;-80
2022/09/30 07:39:25;;;;;;;36.10;23.40;;;;;;;11.53;93.14;100213.83;87344;1284;22470;-80
2022/09/30 07:41:34;;;;;;;26.60;19.90;;;;;;;11.62;92.21;100208.87;87307;1298;22532;-79
2022/09/30 07:43:42;;;;;;;30.20;21.20;;;;;;;11.77;92.00;100219.27;87288;1293;22448;-79
2022/09/30 07:45:48;;;;;;;29.90;20.20;;;;;;;12.04;92.77;100218.53;87272;1295;22480;-80
2022/09/30 07:47:57;;;;;;;28.10;20.60;;;;;;;12.50;92.89;100223.73;87315;1285;22487;-80
2022/09/30 07:50:04;;;;;;;27.40;21.00;;;;;;;12.80;90.97;100225.20;87231;1298;22743;-78
2022/09/30 07:52:12;;;;;;;29.40;20.60;;;;;;;12.97;88.91;100230.13;87224;1300;22516;-79
2022/09/30 07:54:21;;;;;;;28.70;21.20;;;;;;;13.09;87.76;100237.77;87039;1287;24297;-79
2022/09/30 07:56:27;;;;;;;28.90;22.70;;;;;;;13.29;87.23;100241.69;87269;1304;21762;-77
2022/09/30 07:58:34;;;;;;;23.70;20.20;;;;;;;13.66;86.82;100240.60;87176;1285;22469;-79
2022/09/30 08:00:43;;;;;;;34.80;22.60;;;;;;;14.11;84.47;100242.77;87210;1304;24299;-79
2022/09/30 08:02:50;;;;;;;35.90;23.40;;;;;;;14.47;82.35;100247.31;87142;1304;22507;-79
2022/09/30 08:05:00;;;;;;;39.60;24.00;;;;;;;14.86;80.57;100242.27;87179;1304;22513;-79
2022/09/30 08:07:05;;;;;;;32.20;23.50;;;;;;;15.30;79.85;100243.18;87614;1304;22477;-79
2022/09/30 08:09:11;;;;;;;36.40;23.20;;;;;;;15.59;76.56;100244.61;87710;1294;22477;-79
2022/09/30 08:11:19;;;;;;;30.80;21.90;;;;;;;15.75;76.21;100245.06;87699;1284;22546;-79
2022/09/30 08:13:26;;;;;;;24.50;18.80;;;;;;;16.06;75.96;100245.30;87533;1285;22469;-79
2022/09/30 08:15:31;;;;;;;27.70;19.80;;;;;;;16.41;74.26;100246.36;87501;1290;22605;-80
2022/09/30 08:17:40;;;;;;;25.00;19.20;;;;;;;16.57;72.40;100250.52;87600;1304;22744;-79
2022/09/30 08:19:46;;;;;;;23.80;19.30;;;;;;;16.53;71.49;100258.12;87452;1293;25378;-79
2022/09/30 08:21:52;;;;;;;28.80;19.50;;;;;;;16.55;70.95;100256.44;87234;1284;22490;-79
2022/09/30 08:24:05;;;;;;;27.60;20.80;;;;;;;16.57;69.98;100259.82;87207;1304;24309;-78
2022/09/30 08:26:30;;;;;;;29.20;19.60;;;;;;;16.31;68.83;100255.15;87227;1304;22533;-78
2022/09/30 08:28:45;;;;;;;27.00;18.70;;;;;;;16.05;69.27;100253.80;87194;1303;22675;-79
2022/09/30 08:30:53;;;;;;;25.40;17.30;;;;;;;15.86;69.30;100256.23;87116;1294;23978;-80
2022/09/30 08:33:02;;;;;;;23.90;18.40;;;;;;;15.69;69.12;100256.19;87079;1306;22589;-76
2022/09/30 08:35:13;;;;;;;34.40;20.50;;;;;;;15.49;69.27;100263.33;87209;1292;22507;-77
2022/09/30 08:37:22;;;;;;;28.60;21.40;;;;;;;15.29;69.05;100263.48;87356;1298;25426;-78
2022/09/30 08:39:28;;;;;;;28.90;20.40;;;;;;;15.13;69.53;100266.55;87042;1306;22514;-78
2022/09/30 08:42:07;;;;;;;23.30;18.90;;;;;;;15.00;69.52;100266.98;87130;1306;24298;-77
2022/09/30 08:44:23;;;;;;;26.70;19.10;;;;;;;14.86;70.03;100266.17;87150;1289;25355;-77
2022/09/30 08:46:38;;;;;;;28.20;20.20;;;;;;;14.74;69.71;100271.25;87176;1289;22472;-77
2022/09/30 08:48:50;;;;;;;25.80;20.10;;;;;;;14.61;69.61;100269.33;87175;1304;22476;-77
2022/09/30 08:51:04;;;;;;;27.10;18.80;;;;;;;14.48;70.03;100273.20;87220;1281;22457;-78
2022/09/30 08:53:16;;;;;;;25.30;19.10;;;;;;;14.38;69.44;100276.41;87179;1301;22549;-78
2022/09/30 08:55:24;;;;;;;28.60;21.60;;;;;;;14.19;69.11;100280.04;87216;1304;22479;-77
2022/09/30 08:57:35;;;;;;;31.90;23.70;;;;;;;14.05;70.13;100283.45;87215;1277;24379;-78
2022/09/30 08:59:44;;;;;;;34.40;23.70;;;;;;;13.97;70.43;100283.54;87165;1304;22465;-77
2022/09/30 09:01:52;;;;;;;36.50;22.10;;;;;;;13.85;70.30;100277.84;87087;1306;22475;-78
2022/09/30 09:04:03;;;;;;;33.50;22.40;;;;;;;13.75;70.88;100279.96;87161;1304;22479;-77
2022/09/30 09:06:20;;;;;;;39.70;23.70;;;;;;;13.66;71.11;100281.14;87163;1284;22501;-78
2022/09/30 09:08:33;;;;;;;38.20;23.40;;;;;;;13.57;71.42;100286.17;87161;1299;22452;-77
2022/09/30 09:10:44;;;;;;;41.20;25.60;;;;;;;13.48;71.32;100288.42;87156;1293;22469;-77
2022/09/30 09:12:58;;;;;;;36.60;23.60;;;;;;;13.38;71.36;100288.04;87049;1306;22735;-79
2022/09/30 09:15:28;;;;;;;40.50;24.40;;;;;;;13.27;71.58;100290.12;87241;1294;22469;-79
2022/09/30 09:17:50;;;;;;;47.80;25.50;;;;;;;13.18;72.05;100289.72;87186;1284;22461;-76
2022/09/30 09:20:02;;;;;;;37.70;24.10;;;;;;;13.11;72.51;100288.84;87148;1285;22455;-75
2022/09/30 09:22:11;;;;;;;38.90;24.80;;;;;;;13.03;72.42;100291.65;87200;1284;22516;-77
2022/09/30 09:24:18;;;;;;;34.80;24.50;;;;;;;12.93;72.14;100295.11;87184;1281;24026;-77
2022/09/30 09:26:24;;;;;;;36.10;24.70;;;;;;;12.77;72.20;100296.27;87031;1288;22722;-77
2022/09/30 09:28:37;;;;;;;34.90;24.60;;;;;;;12.67;72.62;100293.77;87191;1304;22461;-78
2022/09/30 09:30:45;;;;;;;38.50;24.70;;;;;;;12.65;73.31;100294.74;87194;1304;22514;-79
2022/09/30 09:32:56;;;;;;;35.80;25.50;;;;;;;12.65;73.67;100291.73;87184;1298;22867;-77
2022/09/30 09:35:06;;;;;;;37.90;24.30;;;;;;;12.67;73.71;100293.40;87176;1304;24267;-77
2022/09/30 09:37:17;;;;;;;;;;;;;;;12.70;73.79;100291.86;87212;1304;22462;-77
2022/09/30 09:39:46;;;;;;;33.70;23.90;;;;;;;12.69;73.95;100293.84;87210;1304;22488;-77
2022/09/30 09:41:57;;;;;;;31.60;23.40;;;;;;;12.73;73.89;100295.73;87163;1276;22450;-77
2022/09/30 09:44:06;;;;;;;34.50;24.00;;;;;;;12.75;73.78;100295.11;87165;1298;22442;-78
2022/09/30 09:46:17;;;;;;;33.40;23.60;;;;;;;12.77;73.85;100292.92;87171;1304;22479;-77
2022/09/30 09:48:24;;;;;;;31.50;24.10;;;;;;;12.83;73.95;100291.38;87220;1287;22457;-78
2022/09/30 09:50:38;;;;;;;29.80;22.50;;;;;;;12.89;74.03;100288.14;87177;1288;26711;-78
2022/09/30 09:53:27;;;;;;;31.00;22.10;;;;;;;13.00;73.62;100285.15;87187;1284;22547;-78
2022/09/30 09:55:33;;;;;;;31.40;22.80;;;;;;;13.11;73.45;100283.55;87105;1306;22505;-77
2022/09/30 09:57:40;;;;;;;30.10;22.20;;;;;;;13.21;73.12;100283.96;87185;1286;22680;-78